Time;durP1;ratioP1;P1;durP2;ratioP2;P2;SDS_P1;SDS_P2;PMS_P1;PMS_P2;Temp;Humidity;BMP_temperature;BMP_pressure;BME280_temperature;BME280_humidity;BME280_pressure;Samples;Min_cycle;Max_cycle;Signal;HPM_P1;HPM_P2
2023/08/07 00:03:37;;;;;;;;;;;19.70;55.30;;;18.75;56.35;99896.66;12252283;19;19920;-84
2023/08/07 00:07:38;;;;;;;;;;;19.60;55.30;;;18.69;56.15;99883.22;12250283;19;19925;-84
2023/08/07 00:11:40;;;;;;;;;;;19.60;55.30;;;18.44;56.39;99848.69;12252764;19;19936;-84
2023/08/07 00:15:42;;;;;;;;;;;19.60;55.30;;;18.62;56.12;99879.53;12250962;19;19926;-84
2023/08/07 00:19:43;;;;;;;;;;;19.60;55.30;;;18.50;56.35;99861.31;12247718;19;20342;-83
2023/08/07 00:23:45;;;;;;;;;;;19.50;55.30;;;18.61;56.38;99877.91;12253470;19;19926;-83
2023/08/07 00:27:46;;;;;;;;;;;19.50;55.40;;;18.44;56.42;99842.59;12249220;19;19915;-83
2023/08/07 00:31:49;;;;;;;;;;;19.50;55.40;;;18.22;56.27;99806.97;12251302;19;19923;-84
2023/08/07 00:35:50;;;;;;;;;;;19.40;55.30;;;18.56;56.47;99876.53;12250883;19;19929;-83
2023/08/07 00:39:52;;;;;;;;;;;19.50;55.40;;;18.55;56.38;99876.69;12247686;19;20653;-84
2023/08/07 00:43:53;;;;;;;;;;;19.40;55.30;;;18.54;56.43;99870.56;12251865;19;19922;-84
2023/08/07 00:47:56;;;;;;;;;;;19.40;55.30;;;18.45;56.50;99855.66;12248066;19;19940;-84
2023/08/07 00:51:58;;;;;;;;;;;19.40;55.40;;;18.45;56.27;99863.59;12246266;19;19918;-83
2023/08/07 00:56:02;;;;;;;;;;;19.40;55.40;;;18.48;56.30;99881.78;12247929;19;19919;-83
2023/08/07 01:00:04;;;;;;;;;;;19.40;55.70;;;18.37;56.37;99862.72;12245589;19;19930;-83
2023/08/07 01:04:06;;;;;;;;;;;19.30;55.30;;;18.38;56.68;99862.56;12245509;19;19923;-83
2023/08/07 01:08:08;;;;;;;;;;;19.30;55.70;;;18.33;56.49;99860.41;12243532;19;20525;-82
2023/08/07 01:12:19;;;;;;;;;;;19.30;55.40;;;18.14;56.43;99836.81;12246857;19;19926;-84
2023/08/07 01:16:28;;;;;;;;;;;19.30;55.40;;;18.14;56.54;99842.91;12246796;19;19919;-84
2023/08/07 01:20:30;;;;;;;;;;;19.20;55.50;;;18.35;56.69;99865.50;12243675;19;19923;-85
2023/08/07 01:24:32;;;;;;;;;;;19.20;55.60;;;18.29;56.35;99853.75;12247947;19;19918;-84
2023/08/07 01:28:38;;;;;;;;;;;19.30;55.60;;;18.25;56.56;99836.53;12242992;19;20565;-84
2023/08/07 01:32:55;;;;;;;;;;;19.20;55.60;;;18.27;56.59;99837.22;12246979;19;19923;-84
2023/08/07 01:36:58;;;;;;;;;;;19.20;55.70;;;18.31;56.53;99846.50;12245281;19;20270;-84
2023/08/07 01:41:00;;;;;;;;;;;19.20;55.70;;;18.30;56.49;99846.66;12246834;19;19922;-85
2023/08/07 01:45:03;;;;;;;;;;;19.20;55.70;;;18.26;56.44;99843.50;12242672;19;19986;-84
2023/08/07 01:49:05;;;;;;;;;;;19.20;55.80;;;18.21;56.69;99822.00;12244405;19;19923;-84
2023/08/07 01:53:07;;;;;;;;;;;19.20;55.80;;;18.36;56.52;99846.00;12244781;19;20650;-84
2023/08/07 01:57:09;;;;;;;;;;;19.20;55.80;;;18.30;56.68;99833.44;12245573;19;19915;-84
2023/08/07 02:01:10;;;;;;;;;;;19.30;55.80;;;18.14;56.52;99803.28;12240984;19;19940;-84
2023/08/07 02:05:13;;;;;;;;;;;19.30;55.80;;;18.35;56.50;99844.38;12244669;19;19926;-84
2023/08/07 02:09:15;;;;;;;;;;;19.30;55.80;;;18.32;56.50;99839.41;12244615;19;19915;-84
2023/08/07 02:13:16;;;;;;;;;;;19.30;55.90;;;18.26;56.93;99832.94;12243030;19;19915;-84
2023/08/07 02:17:22;;;;;;;;;;;19.30;55.90;;;18.33;56.79;99847.19;12241130;19;20338;-83
2023/08/07 02:21:23;;;;;;;;;;;19.30;55.90;;;18.39;56.84;99851.00;12253788;19;19914;-84
2023/08/07 02:25:25;;;;;;;;;;;19.30;55.90;;;18.27;56.58;99841.69;12256220;19;19918;-84
2023/08/07 02:29:26;;;;;;;;;;;19.30;56.00;;;18.36;56.74;99853.94;12255829;19;20690;-84
2023/08/07 02:33:30;;;;;;;;;;;19.30;55.90;;;18.42;56.56;99860.44;12259160;19;19915;-84
2023/08/07 02:37:31;;;;;;;;;;;19.40;56.00;;;18.41;56.86;99875.47;12251864;19;19907;-84
2023/08/07 02:41:33;;;;;;;;;;;19.30;55.80;;;18.39;56.83;99866.88;12255906;19;19953;-84
2023/08/07 02:45:36;;;;;;;;;;;19.30;55.90;;;18.32;56.60;99876.41;12254445;19;19935;-84
2023/08/07 02:49:37;;;;;;;;;;;19.30;55.90;;;18.16;56.92;99857.78;12255046;19;19923;-84
2023/08/07 02:53:39;;;;;;;;;;;19.30;55.80;;;18.31;56.66;99870.28;12255458;19;19930;-84
2023/08/07 02:57:41;;;;;;;;;;;19.30;55.90;;;18.30;56.75;99881.84;12251081;19;20287;-84
2023/08/07 03:01:44;;;;;;;;;;;19.30;56.00;;;18.21;56.84;99866.09;12254497;19;19922;-84
2023/08/07 03:05:50;;;;;;;;;;;19.20;56.00;;;18.09;56.64;99852.28;12254797;19;19919;-84
2023/08/07 03:09:51;;;;;;;;;;;19.20;56.10;;;18.16;56.93;99860.44;12253679;19;20326;-84
2023/08/07 03:13:53;;;;;;;;;;;19.20;56.10;;;18.20;57.12;99867.06;12252605;19;19955;-84
2023/08/07 03:17:55;;;;;;;;;;;19.20;56.20;;;18.27;56.80;99878.69;12248535;19;19914;-84
2023/08/07 03:21:56;;;;;;;;;;;19.20;56.20;;;18.23;57.00;99872.88;12254743;19;19910;-84
2023/08/07 03:26:12;;;;;;;;;;;19.20;56.40;;;18.26;57.10;99879.69;12251754;19;19919;-84
2023/08/07 03:30:15;;;;;;;;;;;19.20;56.30;;;18.24;56.91;99882.47;12251290;19;20334;-83
2023/08/07 03:34:17;;;;;;;;;;;19.20;56.40;;;18.18;56.95;99874.34;12254201;19;19922;-83
2023/08/07 03:38:19;;;;;;;;;;;19.20;56.40;;;18.24;56.87;99882.47;12248318;19;19982;-84
2023/08/07 03:42:21;;;;;;;;;;;19.20;56.40;;;18.19;56.93;99873.34;12250985;19;19915;-84
2023/08/07 03:46:23;;;;;;;;;;;19.20;56.50;;;18.27;57.01;99882.16;12250320;19;19919;-84
2023/08/07 03:50:26;;;;;;;;;;;19.20;56.60;;;18.09;57.00;99852.28;12252917;19;19919;-84
2023/08/07 03:54:28;;;;;;;;;;;19.20;56.50;;;18.23;56.89;99867.59;12253212;19;19930;-84
2023/08/07 03:58:30;;;;;;;;;;;19.20;56.50;;;18.22;56.96;99865.91;12246453;19;19922;-84
2023/08/07 04:02:31;;;;;;;;;;;19.20;56.50;;;18.27;57.19;99871.56;12249985;19;20368;-84
2023/08/07 04:06:33;;;;;;;;;;;19.20;56.60;;;18.26;57.28;99866.47;12248881;19;19911;-83
2023/08/07 04:10:34;;;;;;;;;;;19.20;56.60;;;18.34;57.11;99879.72;12250339;19;19914;-84
2023/08/07 04:14:36;;;;;;;;;;;19.30;56.70;;;18.37;57.03;99886.53;12249705;19;20012;-84
2023/08/07 04:18:37;;;;;;;;;;;19.30;56.70;;;18.37;57.16;99879.41;12245912;19;19974;-84
2023/08/07 04:22:40;;;;;;;;;;;19.30;56.70;;;18.18;57.24;99853.19;12250134;19;19922;-84
2023/08/07 04:26:41;;;;;;;;;;;19.30;56.80;;;18.26;57.30;99866.47;12247469;19;19915;-83
2023/08/07 04:30:44;;;;;;;;;;;19.30;56.70;;;18.28;57.21;99860.03;12245768;19;19971;-84
2023/08/07 04:34:46;;;;;;;;;;;19.40;56.70;;;18.34;57.16;99863.88;12248004;19;19927;-83
2023/08/07 04:38:47;;;;;;;;;;;19.40;56.70;;;18.18;57.43;99843.44;12247911;19;19915;-84
2023/08/07 04:42:49;;;;;;;;;;;19.40;56.80;;;18.40;57.21;99886.19;12245016;19;19936;-84
2023/08/07 04:46:52;;;;;;;;;;;19.40;56.80;;;18.45;57.23;99892.69;12245881;19;19922;-84
2023/08/07 04:50:53;;;;;;;;;;;19.40;56.70;;;18.44;57.46;99895.47;12246337;19;20263;-83
2023/08/07 04:54:55;;;;;;;;;;;19.40;56.90;;;18.46;57.45;99881.09;12248497;19;20298;-83
2023/08/07 04:58:56;;;;;;;;;;;19.40;56.90;;;18.45;57.45;99887.41;12247651;19;19921;-83
2023/08/07 05:02:58;;;;;;;;;;;19.50;56.70;;;18.45;57.34;99884.75;12248315;19;19943;-83
2023/08/07 05:06:59;;;;;;;;;;;19.50;56.80;;;18.49;57.23;99898.47;12247041;19;19922;-84
2023/08/07 05:11:01;;;;;;;;;;;19.50;56.70;;;18.51;57.45;99907.09;12245616;19;20336;-84
2023/08/07 05:15:03;;;;;;;;;;;19.50;56.80;;;18.23;57.52;99864.97;12249212;19;19947;-83
2023/08/07 05:19:05;;;;;;;;;;;19.50;56.80;;;18.40;57.50;99889.66;12244984;19;20292;-83
2023/08/07 05:23:06;;;;;;;;;;;19.50;56.80;;;18.55;57.62;99911.06;12246338;19;19922;-83
2023/08/07 05:27:08;;;;;;;;;;;19.50;57.20;;;18.55;57.36;99914.56;12246703;19;19982;-84
2023/08/07 05:31:10;;;;;;;;;;;19.50;56.90;;;18.48;57.59;99905.59;12244876;19;19958;-83
2023/08/07 05:35:11;;;;;;;;;;;19.60;56.80;;;18.52;57.29;99917.53;12245958;19;19914;-84
2023/08/07 05:39:13;;;;;;;;;;;19.60;56.80;;;18.55;57.72;99926.94;12245836;19;19946;-86
2023/08/07 05:43:16;;;;;;;;;;;19.60;57.10;;;18.52;57.41;99930.75;12248058;19;19923;-86
2023/08/07 05:47:18;;;;;;;;;;;19.60;56.90;;;18.60;57.56;99937.03;12244831;19;19925;-85
2023/08/07 05:51:20;;;;;;;;;;;19.60;56.90;;;18.58;57.36;99922.19;12246163;19;20350;-86
2023/08/07 05:55:22;;;;;;;;;;;19.60;56.80;;;18.60;57.69;99931.75;12246622;19;19926;-86
2023/08/07 05:59:23;;;;;;;;;;;19.60;57.10;;;18.55;57.45;99914.56;12242492;19;20338;-86
2023/08/07 06:03:25;;;;;;;;;;;19.70;56.80;;;18.44;57.61;99891.00;12243996;19;19971;-83
2023/08/07 06:07:27;;;;;;;;;;;19.70;56.80;;;18.60;57.86;99919.34;12242543;19;19923;-84
2023/08/07 06:11:29;;;;;;;;;;;19.70;57.10;;;18.73;57.55;99933.00;12243563;19;20606;-84
2023/08/07 06:15:32;;;;;;;;;;;19.70;56.80;;;18.79;57.78;99945.66;12245527;19;19915;-83
2023/08/07 06:19:33;;;;;;;;;;;19.90;57.00;;;18.96;57.73;99958.97;12239652;19;19923;-83
2023/08/07 06:23:35;;;;;;;;;;;19.90;57.10;;;18.93;57.58;99952.16;12245559;19;20015;-83
2023/08/07 06:27:37;;;;;;;;;;;20.00;57.00;;;19.06;57.84;99958.81;12242649;19;19947;-83
2023/08/07 06:31:39;;;;;;;;;;;20.10;57.00;;;19.04;57.61;99956.34;12241598;19;19922;-82
2023/08/07 06:35:42;;;;;;;;;;;20.10;56.70;;;19.10;57.77;99968.94;12243425;19;19915;-83
2023/08/07 06:39:44;;;;;;;;;;;20.10;56.70;;;18.97;57.47;99950.84;12242237;19;20575;-83
2023/08/07 06:43:46;;;;;;;;;;;20.20;56.60;;;19.14;57.60;99972.09;12236490;19;19960;-83
2023/08/07 06:47:47;;;;;;;;;;;20.20;56.60;;;19.09;57.51;99969.94;12240444;19;20352;-83
2023/08/07 06:51:48;;;;;;;;;;;20.20;56.50;;;19.10;57.76;99968.94;12241350;19;19942;-83
2023/08/07 06:55:50;;;;;;;;;;;20.20;56.50;;;19.14;57.69;99975.56;12245126;19;19907;-83
2023/08/07 06:59:51;;;;;;;;;;;20.20;56.40;;;19.16;57.72;99978.06;12236469;19;20286;-83
2023/08/07 07:03:53;;;;;;;;;;;20.20;56.30;;;19.13;57.80;99968.63;12236364;19;20341;-83
2023/08/07 07:07:55;;;;;;;;;;;20.30;56.40;;;19.26;57.45;99980.59;12241537;19;20234;-82
2023/08/07 07:11:56;;;;;;;;;;;20.30;56.40;;;19.39;57.51;99986.28;12255493;19;20237;-83
2023/08/07 07:15:58;;;;;;;;;;;20.40;56.30;;;19.48;57.71;99992.44;12254130;19;20333;-84
2023/08/07 07:19:59;;;;;;;;;;;20.40;56.10;;;19.53;57.80;99996.25;12252332;19;19932;-83
2023/08/07 07:24:02;;;;;;;;;;;20.60;56.20;;;19.51;57.93;99984.97;12255719;19;19923;-83
2023/08/07 07:28:04;;;;;;;;;;;20.60;56.20;;;19.72;57.67;99997.81;12247819;19;19953;-83
2023/08/07 07:32:06;;;;;;;;;;;20.70;56.10;;;19.72;57.46;99989.88;12255126;19;19911;-83
2023/08/07 07:36:13;;;;;;;;;;;20.80;56.30;;;19.87;57.79;100000.66;12252210;19;19915;-82
2023/08/07 07:40:14;;;;;;;;;;;20.90;55.80;;;19.98;57.75;100002.16;12251101;19;19978;-84
2023/08/07 07:44:15;;;;;;;;;;;21.00;56.00;;;20.05;57.73;100005.81;12255715;19;19915;-83
2023/08/07 07:48:17;;;;;;;;;;;21.10;55.70;;;20.09;57.39;100015.94;12252365;19;19911;-83
2023/08/07 07:52:19;;;;;;;;;;;21.10;55.70;;;20.14;57.64;100002.19;12241508;19;19925;-83
2023/08/07 07:56:20;;;;;;;;;;;21.20;55.50;;;20.22;57.74;100023.41;12243986;19;20363;-82
2023/08/07 08:00:26;;;;;;;;;;;21.30;55.50;;;20.10;57.48;99990.25;12237494;19;19922;-83
2023/08/07 08:04:27;;;;;;;;;;;21.40;55.70;;;20.13;57.63;99989.94;12245348;19;19919;-84
2023/08/07 08:08:29;;;;;;;;;;;21.40;55.70;;;20.47;57.80;100042.81;12246396;19;20368;-83
2023/08/07 08:12:31;;;;;;;;;;;21.50;55.30;;;20.56;57.68;100043.69;12247109;19;20602;-83
2023/08/07 08:16:32;;;;;;;;;;;21.60;55.30;;;20.39;57.55;100011.00;12245273;19;19926;-84
2023/08/07 08:20:33;;;;;;;;;;;21.60;55.20;;;20.59;57.12;100043.34;12244243;19;19922;-84
2023/08/07 08:24:35;;;;;;;;;;;21.70;54.90;;;20.46;57.53;100027.06;12247717;19;19918;-84
2023/08/07 08:28:38;;;;;;;;;;;21.70;55.00;;;20.64;57.34;100050.81;12243857;19;19944;-84
2023/08/07 08:32:39;;;;;;;;;;;21.70;54.90;;;20.69;57.32;100051.97;12247641;19;19930;-83
2023/08/07 08:36:41;;;;;;;;;;;21.70;54.80;;;20.68;57.38;100049.47;12243766;19;19923;-83
2023/08/07 08:40:43;;;;;;;;;;;21.80;54.20;;;20.63;57.47;100036.72;12242753;19;19922;-84
2023/08/07 08:44:52;;;;;;;;;;;21.80;54.80;;;20.70;57.52;100053.59;12244192;19;19930;-83
2023/08/07 08:49:00;;;;;;;;;;;21.80;54.90;;;20.69;57.39;100062.59;12244126;19;22807;-84
2023/08/07 08:53:02;;;;;;;;;;;21.80;54.90;;;20.50;57.43;100037.19;12242914;19;19969;-84
2023/08/07 08:57:06;;;;;;;;;;;21.80;54.80;;;20.57;57.41;100053.28;12239061;19;19922;-83
2023/08/07 09:01:08;;;;;;;;;;;21.70;54.90;;;20.54;57.02;100053.63;12240352;19;20269;-82
2023/08/07 09:05:10;;;;;;;;;;;21.70;54.90;;;20.55;57.22;100060.59;12244991;19;19918;-83
2023/08/07 09:09:13;;;;;;;;;;;21.70;55.00;;;20.61;57.38;100064.41;12242341;19;19926;-83
2023/08/07 09:13:17;;;;;;;;;;;21.60;55.10;;;20.67;57.33;100055.78;12243059;19;20529;-82
2023/08/07 09:17:19;;;;;;;;;;;21.70;55.30;;;20.75;56.97;100053.13;12237868;19;19939;-82
2023/08/07 09:21:21;;;;;;;;;;;21.80;55.40;;;20.78;56.96;100047.47;12236797;19;20359;-82
2023/08/07 09:25:33;;;;;;;;;;;21.80;55.30;;;20.90;57.31;100055.91;12235093;19;19947;-83
2023/08/07 09:29:34;;;;;;;;;;;21.80;55.30;;;20.93;57.25;100067.03;12234084;19;19922;-82
2023/08/07 09:33:38;;;;;;;;;;;21.90;55.40;;;21.01;57.25;100052.94;12233088;19;20287;-82
2023/08/07 09:37:42;;;;;;;;;;;22.00;55.50;;;21.02;57.21;100049.25;12230311;19;19938;-82
2023/08/07 09:41:50;;;;;;;;;;;22.10;55.50;;;21.12;56.77;100073.81;12233897;19;19925;-82
2023/08/07 09:45:52;;;;;;;;;;;22.10;55.70;;;20.97;56.67;100065.69;12232498;19;19915;-85
2023/08/07 09:49:55;;;;;;;;;;;22.10;55.80;;;20.93;57.00;100095.41;12231091;19;19954;-85
2023/08/07 09:53:57;;;;;;;;;;;22.00;55.70;;;20.78;57.06;100089.94;12234414;19;21273;-85
2023/08/07 09:58:01;;;;;;;;;;;21.90;55.70;;;20.73;57.02;100082.47;12231624;19;19939;-85
2023/08/07 10:02:03;;;;;;;;;;;21.80;56.10;;;20.48;57.33;100039.16;12233545;19;19927;-85
2023/08/07 10:06:05;;;;;;;;;;;21.80;56.30;;;20.72;57.13;100064.91;12231677;19;20563;-84
2023/08/07 10:10:07;;;;;;;;;;;21.70;56.60;;;20.73;57.19;100078.97;12233307;19;19927;-84
2023/08/07 10:14:09;;;;;;;;;;;21.80;56.80;;;20.73;56.88;100065.72;12234061;19;19952;-84
2023/08/07 10:18:10;;;;;;;;;;;21.80;56.80;;;20.66;57.10;100048.81;12231333;19;19927;-84
2023/08/07 10:22:14;;;;;;;;;;;21.80;56.90;;;20.92;56.99;100083.94;12230852;19;19937;-84
2023/08/07 10:26:16;;;;;;;;;;;21.80;57.20;;;20.93;57.45;100072.34;12231551;19;19945;-84
2023/08/07 10:30:19;;;;;;;;;;;21.90;57.00;;;20.89;56.99;100043.66;12232473;19;19930;-84
2023/08/07 10:34:22;;;;;;;;;;;22.00;57.00;;;21.09;57.12;100071.50;12230406;19;19982;-84
2023/08/07 10:38:23;;;;;;;;;;;22.00;56.70;;;21.05;57.06;100064.84;12229429;19;19934;-85
2023/08/07 10:42:25;;;;;;;;;;;22.10;56.50;;;21.19;57.20;100081.91;12241320;19;20271;-84
2023/08/07 10:46:27;;;;;;;;;;;22.10;56.20;;;20.90;56.92;100024.06;12245107;19;19930;-84
2023/08/07 10:50:32;;;;;;;;;;;22.10;56.00;;;21.20;57.25;100071.13;12242474;19;19994;-84
2023/08/07 10:54:42;;;;;;;;;;;22.20;56.30;;;21.11;56.99;100052.72;12244442;19;19914;-84
2023/08/07 10:58:49;;;;;;;;;;;22.20;55.50;;;21.26;57.32;100076.78;12246666;19;19929;-85
2023/08/07 11:02:51;;;;;;;;;;;22.30;55.70;;;21.18;56.96;100046.56;12247017;19;19957;-84
2023/08/07 11:06:52;;;;;;;;;;;22.30;55.40;;;21.32;57.27;100068.13;12245413;19;19919;-84
2023/08/07 11:10:54;;;;;;;;;;;22.30;55.20;;;21.36;56.93;100059.63;12245074;19;20417;-84
2023/08/07 11:14:56;;;;;;;;;;;22.40;55.10;;;21.48;57.10;100081.38;12246544;19;19930;-84
2023/08/07 11:18:57;;;;;;;;;;;22.40;55.20;;;21.52;57.01;100095.13;12247926;19;19922;-84
2023/08/07 11:22:59;;;;;;;;;;;22.50;54.80;;;21.55;56.98;100076.19;12250616;19;19939;-84
2023/08/07 11:27:01;;;;;;;;;;;22.50;53.30;;;21.32;56.64;100049.53;12250015;19;19930;-84
2023/08/07 11:31:03;;;;;;;;;;;22.50;54.20;;;21.48;57.09;100092.00;12252302;19;19919;-84
2023/08/07 11:35:05;;;;;;;;;;;22.60;54.50;;;21.49;56.67;100095.47;12251250;19;19935;-84
2023/08/07 11:39:07;;;;;;;;;;;22.60;52.80;;;21.46;56.66;100101.13;12247167;19;19930;-85
2023/08/07 11:43:09;;;;;;;;;;;22.50;53.80;;;21.32;56.64;100073.41;12249994;19;19926;-85
2023/08/07 11:47:12;;;;;;;;;;;22.50;54.10;;;21.24;56.88;100068.97;12238907;19;19922;-84
2023/08/07 11:51:13;;;;;;;;;;;22.40;54.20;;;21.34;56.64;100087.38;12246752;19;19914;-84
2023/08/07 11:55:14;;;;;;;;;;;22.40;54.30;;;21.47;56.73;100090.34;12250057;19;19935;-86
2023/08/07 11:59:18;;;;;;;;;;;22.50;54.30;;;21.51;56.73;100104.13;12247909;19;19918;-85
2023/08/07 12:03:31;;;;;;;;;;;22.60;54.30;;;21.48;56.64;100096.50;12251092;19;19919;-85
2023/08/07 12:07:32;;;;;;;;;;;22.40;52.90;;;21.30;56.71;100076.22;12245109;19;19925;-83
2023/08/07 12:11:35;;;;;;;;;;;22.50;53.70;;;21.33;56.60;100075.06;12247248;19;19923;-82
2023/08/07 12:15:37;;;;;;;;;;;22.50;54.30;;;21.51;56.46;100096.13;12248097;19;19967;-84
2023/08/07 12:19:40;;;;;;;;;;;22.60;54.00;;;21.58;56.74;100097.13;12245872;19;19939;-84
2023/08/07 12:23:43;;;;;;;;;;;22.50;54.20;;;21.53;56.34;100079.03;12249206;19;19910;-84
2023/08/07 12:27:47;;;;;;;;;;;22.60;54.30;;;21.53;56.36;100075.56;12246574;19;19951;-85
2023/08/07 12:31:48;;;;;;;;;;;22.60;54.00;;;21.68;56.39;100094.25;12248868;19;19919;-84
2023/08/07 12:35:53;;;;;;;;;;;22.60;54.50;;;21.73;56.26;100084.75;12249524;19;19932;-84
2023/08/07 12:39:54;;;;;;;;;;;22.60;54.30;;;21.75;56.31;100089.91;12248264;19;19936;-84
2023/08/07 12:43:56;;;;;;;;;;;22.70;54.70;;;21.92;56.27;100107.44;12250069;19;19921;-83
2023/08/07 12:47:58;;;;;;;;;;;22.80;54.60;;;21.95;56.37;100095.63;12240560;19;19930;-84
2023/08/07 12:52:00;;;;;;;;;;;22.90;53.60;;;21.92;56.34;100080.03;12242637;19;20586;-85
2023/08/07 12:56:02;;;;;;;;;;;22.90;54.10;;;21.94;56.34;100092.13;12246040;19;19922;-84
2023/08/07 13:00:05;;;;;;;;;;;23.00;53.70;;;22.00;56.10;100102.06;12245590;19;19934;-84
2023/08/07 13:04:08;;;;;;;;;;;23.00;53.90;;;22.01;56.42;100103.75;12245193;19;20297;-84
2023/08/07 13:08:10;;;;;;;;;;;23.00;53.90;;;21.91;56.45;100081.84;12246151;19;19923;-85
2023/08/07 13:12:11;;;;;;;;;;;23.00;53.20;;;21.93;55.96;100079.84;12244352;19;19943;-84
2023/08/07 13:16:13;;;;;;;;;;;23.10;53.50;;;22.07;56.06;100123.47;12245536;19;20003;-84
2023/08/07 13:20:14;;;;;;;;;;;23.10;53.80;;;22.12;55.74;100176.16;12245954;19;19915;-84
2023/08/07 13:24:29;;;;;;;;;;;23.10;53.60;;;21.59;55.98;100120.03;12249390;19;19918;-85
2023/08/07 13:28:30;;;;;;;;;;;23.20;54.30;;;21.79;55.75;100152.34;12244805;19;19931;-86
2023/08/07 13:32:32;;;;;;;;;;;22.90;54.30;;;21.64;56.05;100160.22;12248324;19;20363;-85
2023/08/07 13:36:35;;;;;;;;;;;22.70;54.30;;;21.50;56.07;100158.25;12245304;19;20339;-85
2023/08/07 13:40:37;;;;;;;;;;;22.60;54.50;;;21.24;55.99;100134.53;12245681;19;20344;-86
2023/08/07 13:44:39;;;;;;;;;;;22.40;54.80;;;21.25;56.35;100141.50;12241480;19;19915;-85
2023/08/07 13:48:41;;;;;;;;;;;22.40;55.40;;;21.46;56.14;100180.84;12245865;19;19927;-85
2023/08/07 13:52:42;;;;;;;;;;;22.30;55.70;;;21.43;56.45;100184.66;12243749;19;19931;-85
2023/08/07 13:56:44;;;;;;;;;;;22.30;55.80;;;21.45;56.48;100195.13;12243542;19;19966;-85
2023/08/07 14:00:45;;;;;;;;;;;22.30;56.00;;;21.56;56.41;100203.56;12241676;19;19926;-85
2023/08/07 14:04:46;;;;;;;;;;;22.40;56.20;;;21.63;56.30;100212.53;12244856;19;19927;-84
2023/08/07 14:08:48;;;;;;;;;;;22.40;56.30;;;21.68;56.20;100206.69;12236071;19;20272;-84
2023/08/07 14:12:49;;;;;;;;;;;22.50;56.10;;;21.71;56.42;100208.19;12243787;19;20567;-84
2023/08/07 14:16:51;;;;;;;;;;;22.50;56.20;;;21.78;56.06;100211.81;12237769;19;19914;-85
2023/08/07 14:20:52;;;;;;;;;;;22.60;56.20;;;21.78;56.09;100210.00;12241188;19;19931;-84
2023/08/07 14:24:54;;;;;;;;;;;22.70;56.20;;;21.83;56.48;100207.66;12241570;19;19986;-84
2023/08/07 14:28:55;;;;;;;;;;;22.80;56.20;;;21.92;55.97;100211.13;12241211;19;20252;-84
2023/08/07 14:32:56;;;;;;;;;;;22.80;56.00;;;21.94;56.38;100218.94;12244336;19;19974;-84
2023/08/07 14:36:59;;;;;;;;;;;22.90;55.80;;;21.79;56.44;100211.66;12237982;19;20357;-84
2023/08/07 14:41:02;;;;;;;;;;;22.90;55.60;;;22.00;55.96;100244.81;12239258;19;19931;-84
2023/08/07 14:45:04;;;;;;;;;;;22.90;54.40;;;21.95;55.85;100268.44;12242149;19;19915;-84
2023/08/07 14:49:05;;;;;;;;;;;22.90;54.40;;;21.81;55.99;100262.00;12241301;19;19914;-84
2023/08/07 14:53:07;;;;;;;;;;;22.80;54.00;;;21.75;55.95;100265.34;12240090;19;19922;-84
2023/08/07 14:57:09;;;;;;;;;;;22.70;53.90;;;21.70;55.84;100279.13;12235166;19;19952;-83
2023/08/07 15:01:11;;;;;;;;;;;22.70;53.80;;;21.60;56.13;100276.66;12229102;19;19921;-84
2023/08/07 15:05:14;;;;;;;;;;;22.60;53.80;;;21.56;55.96;100271.84;12233972;19;19923;-83
2023/08/07 15:09:17;;;;;;;;;;;22.60;53.40;;;21.59;56.00;100280.28;12233399;19;19918;-84
2023/08/07 15:13:18;;;;;;;;;;;22.60;53.20;;;21.51;55.86;100271.50;12235927;19;19939;-84
2023/08/07 15:17:19;;;;;;;;;;;22.50;53.20;;;21.49;55.69;100274.31;12238860;19;19926;-83
2023/08/07 15:21:21;;;;;;;;;;;22.50;53.40;;;21.49;55.90;100292.91;12235610;19;19918;-84
2023/08/07 15:25:22;;;;;;;;;;;22.50;52.20;;;21.50;56.06;100293.75;12237056;19;19922;-84
2023/08/07 15:29:24;;;;;;;;;;;22.40;52.40;;;21.17;55.65;100244.09;12257694;19;19933;-83
2023/08/07 15:33:25;;;;;;;;;;;22.40;53.00;;;21.34;55.71;100279.44;12254817;19;19931;-82
2023/08/07 15:37:26;;;;;;;;;;;22.30;52.90;;;21.29;55.58;100257.84;12245149;19;19926;-84
2023/08/07 15:41:28;;;;;;;;;;;22.40;51.80;;;21.39;56.06;100286.94;12246617;19;19934;-83
2023/08/07 15:45:29;;;;;;;;;;;22.40;52.60;;;21.22;55.76;100251.53;12248768;19;19982;-84
2023/08/07 15:49:31;;;;;;;;;;;22.40;51.10;;;21.44;55.76;100289.91;12251400;19;22257;-83
2023/08/07 15:53:32;;;;;;;;;;;22.40;51.30;;;21.44;55.39;100295.22;12249010;19;19926;-84
2023/08/07 15:57:33;;;;;;;;;;;22.40;52.20;;;21.50;55.75;100323.81;12249160;19;19922;-84
2023/08/07 16:01:35;;;;;;;;;;;22.40;51.60;;;21.47;55.78;100297.59;12246869;19;19994;-83
2023/08/07 16:05:37;;;;;;;;;;;22.40;51.90;;;21.54;55.32;100306.53;12249524;19;19911;-83
2023/08/07 16:09:39;;;;;;;;;;;22.50;52.30;;;21.40;55.44;100276.16;12253178;19;19911;-84
2023/08/07 16:13:40;;;;;;;;;;;22.50;52.10;;;21.56;55.48;100309.84;12248577;19;19927;-83
2023/08/07 16:17:42;;;;;;;;;;;22.50;52.10;;;21.50;55.43;100315.03;12252253;19;20367;-83
2023/08/07 16:21:43;;;;;;;;;;;22.50;51.00;;;21.48;55.09;100315.16;12252960;19;19929;-84
2023/08/07 16:25:44;;;;;;;;;;;22.50;51.60;;;21.50;55.06;100321.16;12253910;19;19923;-83
2023/08/07 16:29:46;;;;;;;;;;;22.40;51.70;;;21.46;55.14;100303.88;12252921;19;20321;-84
2023/08/07 16:33:47;;;;;;;;;;;22.40;50.60;;;21.52;55.11;100323.63;12250993;19;19939;-83
2023/08/07 16:37:48;;;;;;;;;;;22.40;51.70;;;21.47;55.01;100310.00;12247676;19;20273;-84
2023/08/07 16:41:50;;;;;;;;;;;22.40;51.90;;;21.43;55.05;100306.88;12254273;19;19918;-83
2023/08/07 16:45:51;;;;;;;;;;;22.50;51.20;;;21.49;55.14;100326.63;12252708;19;19919;-83
2023/08/07 16:49:52;;;;;;;;;;;22.40;51.00;;;21.48;54.96;100340.91;12249027;19;20265;-83
2023/08/07 16:53:54;;;;;;;;;;;22.40;51.20;;;21.24;54.90;100331.06;12251975;19;19919;-83
2023/08/07 16:57:55;;;;;;;;;;;22.40;50.50;;;21.29;54.60;100337.53;12237617;19;20680;-82
2023/08/07 17:01:56;;;;;;;;;;;22.40;50.30;;;21.26;54.59;100364.44;12245437;19;19915;-83
2023/08/07 17:05:58;;;;;;;;;;;22.30;50.70;;;21.21;54.68;100372.06;12242508;19;19953;-83
2023/08/07 17:10:00;;;;;;;;;;;22.30;50.60;;;21.09;54.56;100358.25;12244499;19;20038;-83
2023/08/07 17:14:01;;;;;;;;;;;22.20;49.90;;;21.02;54.89;100367.84;12241491;19;19960;-84
2023/08/07 17:18:03;;;;;;;;;;;22.20;48.80;;;21.07;54.87;100381.47;12241393;19;19926;-84
2023/08/07 17:22:05;;;;;;;;;;;22.10;49.20;;;21.03;54.30;100384.59;12248558;19;19969;-83
2023/08/07 17:26:06;;;;;;;;;;;22.10;50.40;;;21.04;54.19;100386.28;12247015;19;20377;-84
2023/08/07 17:30:08;;;;;;;;;;;22.00;50.80;;;21.06;54.56;100400.22;12247292;19;19918;-84
2023/08/07 17:34:09;;;;;;;;;;;22.00;50.00;;;20.86;54.37;100375.75;12246250;19;19921;-83
2023/08/07 17:38:10;;;;;;;;;;;22.00;50.90;;;21.05;54.18;100404.69;12245247;19;19978;-83
2023/08/07 17:42:12;;;;;;;;;;;22.00;50.90;;;20.95;54.12;100404.84;12248381;19;20556;-83
2023/08/07 17:46:13;;;;;;;;;;;21.90;50.30;;;20.92;54.54;100402.47;12248206;19;19918;-83
2023/08/07 17:50:15;;;;;;;;;;;21.90;50.70;;;20.84;54.45;100397.13;12244307;19;19950;-84
2023/08/07 17:54:16;;;;;;;;;;;21.90;50.50;;;20.74;54.13;100386.66;12243194;19;19965;-82
2023/08/07 17:58:19;;;;;;;;;;;21.90;51.00;;;20.71;54.19;100407.34;12243009;19;19929;-83
2023/08/07 18:02:21;;;;;;;;;;;21.80;50.80;;;20.87;54.15;100441.13;12244097;19;19925;-83
2023/08/07 18:06:22;;;;;;;;;;;21.80;50.50;;;20.80;53.93;100448.91;12246265;19;19929;-84
2023/08/07 18:10:23;;;;;;;;;;;21.80;50.70;;;20.73;54.02;100426.63;12244628;19;19983;-83
2023/08/07 18:14:25;;;;;;;;;;;21.70;50.10;;;20.77;54.10;100450.03;12245615;19;19922;-84